createdAt,value
2018-03-11T00:01:42.792Z,73.80
2018-03-11T00:04:10.319Z,73.80
2018-03-11T00:06:39.409Z,74.30
2018-03-11T00:09:06.913Z,74.20
2018-03-11T00:11:34.963Z,74.30
2018-03-11T00:14:03.378Z,74.10
2018-03-11T00:16:31.239Z,74.20
2018-03-11T00:19:00.633Z,74.40
2018-03-11T00:21:28.203Z,74.30
2018-03-11T00:23:55.785Z,74.40
2018-03-11T00:26:23.367Z,74.30
2018-03-11T00:28:51.621Z,74.30
2018-03-11T00:31:19.219Z,74.30
2018-03-11T00:33:47.571Z,74.30
2018-03-11T00:36:16.177Z,74.30
2018-03-11T00:38:44.280Z,74.30
2018-03-11T00:41:13.301Z,74.00
2018-03-11T00:43:41.599Z,74.00
2018-03-11T00:46:09.876Z,73.90
2018-03-11T00:48:37.532Z,73.90
2018-03-11T00:51:05.056Z,74.50
2018-03-11T00:53:32.595Z,73.90
2018-03-11T00:56:00.868Z,74.20
2018-03-11T00:58:28.488Z,74.10
2018-03-11T01:00:56.046Z,74.10
2018-03-11T01:03:23.568Z,74.10
2018-03-11T01:05:51.088Z,74.30
2018-03-11T01:08:18.593Z,74.20
2018-03-11T01:10:46.138Z,74.30
2018-03-11T01:13:13.650Z,74.40
2018-03-11T01:15:41.138Z,74.40
2018-03-11T01:18:08.662Z,74.40
2018-03-11T01:20:36.214Z,74.40
2018-03-11T01:23:03.749Z,74.30
2018-03-11T01:25:31.264Z,74.40
2018-03-11T01:27:58.892Z,75.00
2018-03-11T01:30:26.483Z,74.50
2018-03-11T01:32:54.047Z,74.50
2018-03-11T01:35:22.321Z,74.60
2018-03-11T01:37:49.894Z,74.60
2018-03-11T01:40:17.380Z,74.50
2018-03-11T01:42:45.894Z,74.80
2018-03-11T01:45:13.366Z,74.70
2018-03-11T01:47:40.924Z,74.80
2018-03-11T01:50:09.215Z,74.50
2018-03-11T01:55:38.307Z,74.30
2018-03-11T01:58:05.787Z,74.50
2018-03-11T02:00:33.265Z,74.40
2018-03-11T02:03:00.949Z,74.40
2018-03-11T02:05:28.533Z,74.50
2018-03-11T02:07:56.819Z,74.70
2018-03-11T02:10:25.080Z,74.60
2018-03-11T02:12:52.590Z,74.50
2018-03-11T02:15:22.125Z,75.10
2018-03-11T02:17:50.497Z,74.90
2018-03-11T02:20:18.057Z,74.50
2018-03-11T02:22:45.549Z,75.30
2018-03-11T02:25:13.114Z,74.70
2018-03-11T02:27:40.634Z,74.20
2018-03-11T02:30:08.168Z,74.80
2018-03-11T02:32:36.437Z,75.00
2018-03-11T02:35:03.923Z,75.00
2018-03-11T02:37:32.213Z,75.10
2018-03-11T02:40:00.472Z,75.10
2018-03-11T02:42:28.053Z,75.00
2018-03-11T02:44:55.536Z,75.10
2018-03-11T02:47:23.050Z,75.10
2018-03-11T02:49:50.564Z,74.80
2018-03-11T02:52:18.829Z,75.40
2018-03-11T02:54:46.315Z,75.40
2018-03-11T02:57:14.578Z,76.10
2018-03-11T02:59:42.076Z,75.40
2018-03-11T03:02:09.582Z,75.50
2018-03-11T03:04:38.452Z,75.50
2018-03-11T03:07:05.983Z,75.30
2018-03-11T03:09:33.509Z,75.30
2018-03-11T03:12:01.088Z,75.60
2018-03-11T03:14:29.339Z,75.70
2018-03-11T03:16:56.947Z,75.70
2018-03-11T03:19:25.192Z,76.00
2018-03-11T03:21:52.698Z,75.90
2018-03-11T03:24:20.181Z,76.20
2018-03-11T03:26:48.550Z,76.30
2018-03-11T03:29:16.905Z,76.40
2018-03-11T03:31:44.394Z,76.40
2018-03-11T03:34:11.896Z,76.50
2018-03-11T03:36:40.161Z,76.80
2018-03-11T03:39:07.733Z,76.70
2018-03-11T03:41:37.216Z,76.90
2018-03-11T03:44:04.721Z,76.90
2018-03-11T03:46:32.208Z,77.10
2018-03-11T03:49:00.463Z,77.10
2018-03-11T03:51:28.112Z,77.00
2018-03-11T03:53:55.597Z,77.00
2018-03-11T03:56:23.086Z,77.10
2018-03-11T03:58:50.593Z,77.10
2018-03-11T04:01:18.889Z,77.30
2018-03-11T04:03:46.405Z,77.30
2018-03-11T04:06:13.889Z,77.30
2018-03-11T04:08:41.411Z,77.60
2018-03-11T04:11:09.101Z,77.80
2018-03-11T04:13:36.652Z,77.90
2018-03-11T04:16:04.162Z,77.90
2018-03-11T04:18:31.673Z,78.00
2018-03-11T04:20:59.909Z,78.20
2018-03-11T04:23:27.429Z,78.20
2018-03-11T04:25:55.730Z,78.50
2018-03-11T04:28:23.225Z,78.40
2018-03-11T04:30:50.711Z,78.60
2018-03-11T04:33:18.239Z,78.50
2018-03-11T04:35:45.958Z,78.60
2018-03-11T04:38:13.569Z,78.80
2018-03-11T04:40:41.879Z,79.10
2018-03-11T04:43:09.432Z,79.00
2018-03-11T04:45:37.795Z,78.90
2018-03-11T04:48:05.396Z,78.90
2018-03-11T04:50:33.677Z,78.80
2018-03-11T04:53:01.962Z,78.80
2018-03-11T04:55:30.233Z,78.60
2018-03-11T04:57:57.831Z,78.60
2018-03-11T05:00:26.073Z,78.70
2018-03-11T05:02:53.583Z,78.70
2018-03-11T05:05:21.060Z,78.70
2018-03-11T05:07:49.314Z,78.70
2018-03-11T05:10:16.798Z,78.70
2018-03-11T05:12:44.290Z,78.70
2018-03-11T05:15:12.556Z,79.10
2018-03-11T05:17:40.303Z,79.10
2018-03-11T05:20:07.809Z,79.20
2018-03-11T05:22:35.305Z,79.30
2018-03-11T05:25:02.830Z,79.40
2018-03-11T05:27:30.325Z,79.40
2018-03-11T05:29:58.736Z,79.90
2018-03-11T05:32:26.233Z,79.90
2018-03-11T05:34:53.910Z,80.00
2018-03-11T05:37:22.000Z,79.90
2018-03-11T05:39:49.601Z,79.90
2018-03-11T05:42:17.103Z,80.00
2018-03-11T05:44:44.599Z,80.30
2018-03-11T05:47:12.092Z,80.30
2018-03-11T05:49:39.595Z,80.50
2018-03-11T05:52:07.880Z,80.90
2018-03-11T05:54:36.253Z,80.90
2018-03-11T05:57:03.796Z,80.90
2018-03-11T05:59:31.337Z,81.00
2018-03-11T06:01:58.821Z,81.10
2018-03-11T06:04:26.327Z,81.10
2018-03-11T06:06:53.817Z,81.10
2018-03-11T06:09:21.401Z,81.10
2018-03-11T06:11:49.699Z,81.00
2018-03-11T06:14:17.977Z,81.00
2018-03-11T06:16:45.675Z,80.90
2018-03-11T06:19:13.403Z,81.00
2018-03-11T06:21:40.919Z,80.90
2018-03-11T06:24:08.445Z,80.60
2018-03-11T06:26:35.923Z,80.60
2018-03-11T06:29:03.561Z,80.30
2018-03-11T06:31:31.040Z,80.50
2018-03-11T06:33:58.537Z,80.10
2018-03-11T06:36:26.130Z,80.20
2018-03-11T06:38:54.440Z,80.00
2018-03-11T06:41:22.006Z,80.00
2018-03-11T06:43:49.518Z,79.90
2018-03-11T06:46:17.024Z,79.90
2018-03-11T06:48:45.286Z,79.80
2018-03-11T06:51:12.874Z,79.70
2018-03-11T06:53:41.157Z,79.80
2018-03-11T06:56:08.776Z,79.30
2018-03-11T06:58:36.317Z,79.50
2018-03-11T07:01:04.626Z,79.20
2018-03-11T07:03:32.144Z,79.20
2018-03-11T07:05:59.653Z,79.30
2018-03-11T07:08:28.059Z,89.90
2018-03-11T07:10:55.647Z,89.80
2018-03-11T07:13:23.174Z,82.90
2018-03-11T07:15:51.461Z,75.30
2018-03-11T07:18:19.047Z,75.00
2018-03-11T07:20:47.371Z,74.40
2018-03-11T07:23:14.889Z,74.30
2018-03-11T07:25:43.202Z,73.20
2018-03-11T07:28:10.809Z,72.30
2018-03-11T07:30:38.334Z,71.90
2018-03-11T07:33:06.722Z,71.10
2018-03-11T07:35:35.024Z,71.80
2018-03-11T07:38:02.565Z,71.70
2018-03-11T07:40:31.614Z,71.50
2018-03-11T07:42:59.099Z,71.50
2018-03-11T07:45:26.865Z,70.80
2018-03-11T07:47:54.385Z,70.40
2018-03-11T07:50:22.411Z,68.60
2018-03-11T07:52:49.929Z,68.10
2018-03-11T07:55:17.459Z,67.80
2018-03-11T07:57:45.105Z,67.90
2018-03-11T08:00:13.388Z,68.00
2018-03-11T08:02:40.959Z,67.80
2018-03-11T08:05:09.227Z,68.50
2018-03-11T08:07:36.739Z,68.40
2018-03-11T08:10:04.342Z,68.50
2018-03-11T08:12:31.853Z,68.90
2018-03-11T08:14:59.443Z,69.20
2018-03-11T08:17:28.369Z,69.60
2018-03-11T08:19:55.892Z,69.60
2018-03-11T08:22:23.420Z,69.80
2018-03-11T08:24:50.986Z,70.00
2018-03-11T08:27:18.531Z,70.20
2018-03-11T08:29:46.031Z,70.10
2018-03-11T08:32:13.587Z,70.30
2018-03-11T08:34:41.083Z,70.80
2018-03-11T08:37:08.620Z,70.90
2018-03-11T08:39:36.116Z,70.70
2018-03-11T08:42:03.753Z,71.00
2018-03-11T08:44:32.050Z,71.30
2018-03-11T08:46:59.609Z,71.40
2018-03-11T08:49:27.874Z,71.30
2018-03-11T08:51:55.982Z,71.20
2018-03-11T08:54:24.276Z,71.00
2018-03-11T08:56:51.794Z,70.90
2018-03-11T08:59:19.443Z,71.10
2018-03-11T09:01:46.977Z,71.20
2018-03-11T09:04:16.128Z,71.00
2018-03-11T09:06:43.654Z,70.90
2018-03-11T09:09:12.009Z,70.90
2018-03-11T09:11:39.546Z,70.90
2018-03-11T09:14:07.096Z,70.70
2018-03-11T09:16:35.440Z,69.80
2018-03-11T09:19:02.966Z,69.80
2018-03-11T09:21:30.495Z,69.80
2018-03-11T09:23:58.175Z,69.00
2018-03-11T09:26:25.698Z,68.80
2018-03-11T09:28:53.280Z,68.50
2018-03-11T09:31:20.801Z,68.10
2018-03-11T09:33:49.118Z,67.50
2018-03-11T09:36:16.794Z,67.40
2018-03-11T09:38:44.342Z,67.20
2018-03-11T09:41:12.640Z,67.20
2018-03-11T09:43:40.980Z,66.40
2018-03-11T09:46:08.605Z,66.30
2018-03-11T09:48:36.915Z,65.20
2018-03-11T09:51:04.914Z,65.10
2018-03-11T09:53:32.560Z,65.00
2018-03-11T09:56:01.379Z,64.30
2018-03-11T09:58:29.190Z,63.60
2018-03-11T10:00:56.718Z,63.60
2018-03-11T10:03:24.246Z,62.60
2018-03-11T10:05:52.006Z,62.10
2018-03-11T10:08:19.685Z,61.10
2018-03-11T10:10:47.203Z,61.60
2018-03-11T10:13:14.738Z,61.20
2018-03-11T10:15:42.240Z,61.40
2018-03-11T10:18:10.197Z,59.90
2018-03-11T10:20:37.753Z,59.30
2018-03-11T10:23:05.440Z,59.30
2018-03-11T10:25:33.702Z,58.20
2018-03-11T10:28:01.253Z,58.20
2018-03-11T10:30:28.842Z,56.50
2018-03-11T10:32:56.410Z,55.80
2018-03-11T10:35:24.070Z,54.30
2018-03-11T10:37:51.634Z,54.70
2018-03-11T10:40:19.167Z,53.10
2018-03-11T10:42:47.432Z,52.80
2018-03-11T10:45:15.074Z,52.80
2018-03-11T10:47:42.671Z,51.50
2018-03-11T10:50:10.262Z,49.80
2018-03-11T10:52:37.821Z,49.30
2018-03-11T10:55:05.371Z,49.30
2018-03-11T10:57:33.107Z,48.40
2018-03-11T11:00:00.614Z,47.10
2018-03-11T11:02:28.158Z,46.00
2018-03-11T11:05:00.748Z,44.90
2018-03-11T11:07:28.285Z,45.10
2018-03-11T11:09:56.587Z,47.10
2018-03-11T11:12:24.892Z,46.80
2018-03-11T11:14:52.489Z,46.80
2018-03-11T11:17:19.992Z,46.90
2018-03-11T11:19:47.534Z,47.00
2018-03-11T11:22:15.084Z,47.30
2018-03-11T11:24:42.790Z,47.80
2018-03-11T11:27:10.274Z,48.70
2018-03-11T11:29:38.579Z,49.30
2018-03-11T11:32:06.912Z,49.80
2018-03-11T11:34:34.370Z,49.80
2018-03-11T11:37:02.040Z,50.50
2018-03-11T11:39:29.592Z,50.70
2018-03-11T11:41:57.921Z,51.70
2018-03-11T11:44:25.436Z,51.70
2018-03-11T11:46:53.755Z,52.20
2018-03-11T11:49:21.330Z,52.10
2018-03-11T11:51:49.307Z,52.20
2018-03-11T11:54:16.826Z,52.80
2018-03-11T11:56:44.354Z,53.10
2018-03-11T11:59:11.883Z,52.90
2018-03-11T12:01:39.384Z,52.50
2018-03-11T12:04:07.708Z,51.30
2018-03-11T12:06:35.239Z,51.30
2018-03-11T12:09:03.519Z,50.10
2018-03-11T12:11:31.803Z,50.00
2018-03-11T12:14:00.128Z,49.50
2018-03-11T12:16:27.648Z,49.50
2018-03-11T12:18:55.151Z,49.50
2018-03-11T12:21:23.419Z,48.60
2018-03-11T12:23:51.026Z,48.50
2018-03-11T12:26:18.788Z,47.50
2018-03-11T12:28:46.399Z,47.20
2018-03-11T12:31:13.922Z,46.50
2018-03-11T12:33:42.227Z,45.30
2018-03-11T12:36:09.788Z,45.30
2018-03-11T12:38:38.062Z,45.50
2018-03-11T12:41:06.341Z,45.40
2018-03-11T12:43:33.984Z,45.40
2018-03-11T12:46:01.493Z,45.00
2018-03-11T12:48:29.337Z,45.20
2018-03-11T12:50:56.857Z,45.60
2018-03-11T12:53:25.122Z,46.20
2018-03-11T12:55:52.629Z,46.20
2018-03-11T12:58:20.142Z,46.40
2018-03-11T13:00:47.878Z,46.60
2018-03-11T13:03:15.396Z,46.50
2018-03-11T13:05:42.918Z,46.50
2018-03-11T13:08:10.426Z,46.30
2018-03-11T13:10:37.958Z,46.80
2018-03-11T13:13:05.492Z,47.00
2018-03-11T13:15:33.786Z,47.30
2018-03-11T13:18:02.060Z,48.40
2018-03-11T13:20:41.564Z,47.90
2018-03-11T13:23:09.212Z,47.50
2018-03-11T13:25:36.802Z,47.90
2018-03-11T13:28:16.286Z,47.20
2018-03-11T13:30:43.829Z,46.20
2018-03-11T13:33:23.306Z,46.30
2018-03-11T13:35:50.966Z,45.90
2018-03-11T13:38:30.683Z,46.20
2018-03-11T13:40:58.973Z,46.30
2018-03-11T13:43:27.282Z,46.10
2018-03-11T13:46:07.175Z,46.10
2018-03-11T13:48:34.984Z,46.00
2018-03-11T13:51:02.502Z,45.90
2018-03-11T13:53:41.951Z,45.70
2018-03-11T13:56:09.522Z,45.70
2018-03-11T13:58:43.814Z,46.00
2018-03-11T14:01:12.169Z,46.10
2018-03-11T14:03:39.720Z,46.10
2018-03-11T14:06:07.243Z,46.10
2018-03-11T14:08:34.748Z,46.20
2018-03-11T14:11:02.260Z,46.60
2018-03-11T14:13:30.545Z,46.80
2018-03-11T14:15:58.309Z,46.70
2018-03-11T14:18:25.923Z,46.80
2018-03-11T14:20:53.505Z,46.80
2018-03-11T14:23:21.794Z,47.00
2018-03-11T14:25:50.094Z,46.30
2018-03-11T14:28:17.720Z,46.20
2018-03-11T14:30:45.258Z,46.30
2018-03-11T14:33:12.764Z,46.20
2018-03-11T14:35:41.102Z,46.40
2018-03-11T14:38:08.627Z,46.00
2018-03-11T14:40:36.173Z,46.30
2018-03-11T14:43:03.649Z,46.50
2018-03-11T14:45:31.185Z,46.30
2018-03-11T14:47:58.771Z,45.60
2018-03-11T14:50:26.309Z,45.60
2018-03-11T14:52:53.991Z,45.70
2018-03-11T14:55:22.293Z,46.20
2018-03-11T14:57:49.808Z,46.20
2018-03-11T15:00:18.077Z,46.00
2018-03-11T15:02:45.588Z,46.40
2018-03-11T15:05:13.351Z,46.10
2018-03-11T15:07:40.881Z,46.10
2018-03-11T15:10:08.424Z,46.30
2018-03-11T15:12:36.807Z,45.90
2018-03-11T15:15:05.166Z,46.20
2018-03-11T15:17:34.149Z,46.10
2018-03-11T15:20:01.670Z,46.20
2018-03-11T15:22:29.150Z,46.30
2018-03-11T15:24:57.449Z,46.60
2018-03-11T15:27:25.733Z,46.70
2018-03-11T15:29:53.257Z,46.60
2018-03-11T15:32:21.602Z,46.90
2018-03-11T15:34:49.438Z,47.20
2018-03-11T15:37:17.032Z,47.20
2018-03-11T15:39:45.452Z,47.50
2018-03-11T15:42:12.957Z,47.50
2018-03-11T15:44:40.503Z,47.40
2018-03-11T15:47:08.200Z,47.60
2018-03-11T15:49:35.789Z,47.80
2018-03-11T15:52:04.979Z,47.90
2018-03-11T15:54:32.579Z,48.20
2018-03-11T15:57:00.092Z,48.40
2018-03-11T15:59:27.606Z,48.70
2018-03-11T16:01:56.040Z,48.90
2018-03-11T16:04:24.314Z,49.30
2018-03-11T16:06:52.602Z,49.50
2018-03-11T16:09:20.872Z,49.50
2018-03-11T16:11:48.383Z,49.40
2018-03-11T16:14:15.894Z,49.70
2018-03-11T16:16:43.427Z,49.80
2018-03-11T16:19:11.043Z,49.90
2018-03-11T16:21:38.673Z,50.00
2018-03-11T16:24:06.329Z,50.10
2018-03-11T16:26:34.594Z,50.40
2018-03-11T16:29:02.110Z,50.30
2018-03-11T16:31:29.841Z,50.50
2018-03-11T16:33:57.434Z,50.60
2018-03-11T16:36:25.690Z,50.90
2018-03-11T16:38:53.264Z,50.80
2018-03-11T16:41:21.578Z,51.20
2018-03-11T16:43:49.903Z,51.30
2018-03-11T16:46:17.445Z,51.30
2018-03-11T16:48:45.739Z,51.60
2018-03-11T16:51:13.394Z,51.60
2018-03-11T16:53:41.740Z,51.90
2018-03-11T16:56:09.231Z,51.80
2018-03-11T16:58:36.747Z,52.00
2018-03-11T17:01:04.268Z,52.10
2018-03-11T17:03:31.856Z,52.30
2018-03-11T17:05:59.670Z,52.50
2018-03-11T17:08:27.208Z,52.40
2018-03-11T17:10:55.495Z,52.70
2018-03-11T17:13:23.128Z,52.70
2018-03-11T17:15:50.668Z,52.80
2018-03-11T17:18:18.213Z,52.90
2018-03-11T17:20:45.836Z,53.00
2018-03-11T17:23:13.398Z,53.10
2018-03-11T17:25:40.929Z,53.20
2018-03-11T17:28:09.229Z,53.90
2018-03-11T17:30:37.549Z,53.40
2018-03-11T17:33:05.139Z,53.40
2018-03-11T17:35:32.690Z,53.60
2018-03-11T17:38:00.361Z,53.70
2018-03-11T17:40:28.123Z,53.70
2018-03-11T17:42:56.617Z,53.80
2018-03-11T17:45:24.185Z,54.00
2018-03-11T17:47:52.696Z,54.10
2018-03-11T17:50:20.244Z,54.00
2018-03-11T17:52:48.714Z,54.20
2018-03-11T17:55:16.258Z,54.20
2018-03-11T17:57:43.846Z,54.20
2018-03-11T18:00:11.474Z,54.30
2018-03-11T18:02:39.144Z,54.50
2018-03-11T18:05:06.717Z,54.50
2018-03-11T18:07:34.322Z,54.50
2018-03-11T18:10:02.084Z,54.60
2018-03-11T18:12:29.890Z,54.70
2018-03-11T18:14:57.549Z,54.80
2018-03-11T18:17:25.409Z,55.40
2018-03-11T18:19:53.072Z,54.80
2018-03-11T18:22:20.823Z,54.90
2018-03-11T18:24:49.396Z,55.00
2018-03-11T18:27:16.930Z,55.00
2018-03-11T18:29:44.591Z,55.00
2018-03-11T18:32:12.220Z,55.00
2018-03-11T18:34:40.037Z,55.10
2018-03-11T18:37:07.653Z,55.20
2018-03-11T18:39:35.395Z,55.20
2018-03-11T18:42:03.066Z,55.20
2018-03-11T18:44:30.832Z,55.30
2018-03-11T18:46:58.445Z,55.40
2018-03-11T18:49:26.630Z,55.40
2018-03-11T18:51:54.818Z,55.50
2018-03-11T18:54:23.078Z,55.40
2018-03-11T18:56:51.247Z,55.40
2018-03-11T18:59:19.741Z,55.50
2018-03-11T19:01:47.697Z,55.40
2018-03-11T19:04:16.330Z,55.60
2018-03-11T19:06:44.236Z,55.50
2018-03-11T19:09:11.816Z,55.60
2018-03-11T19:11:39.453Z,55.60
2018-03-11T19:14:07.099Z,55.70
2018-03-11T19:16:35.617Z,55.90
2018-03-11T19:19:03.465Z,55.90
2018-03-11T19:21:31.951Z,55.90
2018-03-11T19:23:59.658Z,55.90
2018-03-11T19:26:27.249Z,56.00
2018-03-11T19:28:54.880Z,56.10
2018-03-11T19:31:23.318Z,55.70
2018-03-11T19:33:51.095Z,56.00
2018-03-11T19:36:19.072Z,56.00
2018-03-11T19:38:46.989Z,56.00
2018-03-11T19:41:14.952Z,56.00
2018-03-11T19:43:42.610Z,56.00
2018-03-11T19:46:10.326Z,56.00
2018-03-11T19:48:38.303Z,56.10
2018-03-11T19:51:07.895Z,56.10
2018-03-11T19:53:35.638Z,56.10
2018-03-11T19:56:03.315Z,56.20
2018-03-11T19:58:31.069Z,56.70
2018-03-11T20:00:59.671Z,56.20
2018-03-11T20:03:27.676Z,56.20
2018-03-11T20:05:55.567Z,56.20
2018-03-11T20:08:23.444Z,56.30
2018-03-11T20:10:51.386Z,56.40
2018-03-11T20:13:19.618Z,56.40
2018-03-11T20:15:47.495Z,56.40
2018-03-11T20:18:15.447Z,56.50
2018-03-11T20:20:43.457Z,56.50
2018-03-11T20:23:11.421Z,56.50
2018-03-11T20:25:39.404Z,56.40
2018-03-11T20:28:07.475Z,56.50
2018-03-11T20:30:35.387Z,56.60
2018-03-11T20:33:03.244Z,56.70
2018-03-11T20:35:31.174Z,56.90
2018-03-11T20:37:59.106Z,56.80
2018-03-11T20:40:26.879Z,56.80
2018-03-11T20:42:54.760Z,56.80
2018-03-11T20:45:23.021Z,56.80
2018-03-11T20:47:50.418Z,56.70
2018-03-11T20:50:18.401Z,56.70
2018-03-11T20:52:46.169Z,56.80
2018-03-11T20:55:13.951Z,56.80
2018-03-11T20:57:41.739Z,57.00
2018-03-11T21:00:09.507Z,57.20
2018-03-11T21:02:37.186Z,57.20
2018-03-11T21:05:04.962Z,57.30
2018-03-11T21:07:32.732Z,57.40
2018-03-11T21:10:00.361Z,57.50
2018-03-11T21:12:28.219Z,57.50
2018-03-11T21:14:56.011Z,57.60
2018-03-11T21:17:23.735Z,57.70
2018-03-11T21:19:51.374Z,57.80
2018-03-11T21:22:20.058Z,61.50
2018-03-11T21:24:47.660Z,61.40
2018-03-11T21:27:16.085Z,57.20
2018-03-11T21:29:43.824Z,57.20
2018-03-11T21:32:11.532Z,55.90
2018-03-11T21:34:39.322Z,55.10
2018-03-11T21:37:07.104Z,53.70
2018-03-11T21:39:34.738Z,54.20
2018-03-11T21:42:02.324Z,54.00
2018-03-11T21:44:29.926Z,54.40
2018-03-11T21:46:57.623Z,55.00
2018-03-11T21:49:25.868Z,55.30
2018-03-11T21:51:53.439Z,55.50
2018-03-11T21:54:21.313Z,55.80
2018-03-11T21:56:48.976Z,56.00
2018-03-11T21:59:16.710Z,56.30
2018-03-11T22:01:45.252Z,56.70
2018-03-11T22:04:12.863Z,56.70
2018-03-11T22:06:40.476Z,56.70
2018-03-11T22:09:08.817Z,57.10
2018-03-11T22:11:36.388Z,57.20
2018-03-11T22:14:04.075Z,57.20
2018-03-11T22:16:31.616Z,57.40
2018-03-11T22:18:59.512Z,57.50
2018-03-11T22:21:27.074Z,57.60
2018-03-11T22:23:54.600Z,57.60
2018-03-11T22:26:22.143Z,57.80
2018-03-11T22:28:49.757Z,58.00
2018-03-11T22:31:17.297Z,58.10
2018-03-11T22:33:44.847Z,58.20
2018-03-11T22:36:12.393Z,58.40
2018-03-11T22:38:40.122Z,58.40
2018-03-11T22:41:08.462Z,59.10
2018-03-11T22:43:35.973Z,58.60
2018-03-11T22:46:04.254Z,58.80
2018-03-11T22:48:31.937Z,58.70
2018-03-11T22:50:59.461Z,58.80
2018-03-11T22:53:26.973Z,59.40
2018-03-11T22:55:54.554Z,59.00
2018-03-11T22:58:22.097Z,59.10
2018-03-11T23:00:49.698Z,59.10
2018-03-11T23:03:17.258Z,59.20
2018-03-11T23:05:44.770Z,59.80
2018-03-11T23:08:12.302Z,59.50
2018-03-11T23:10:39.807Z,59.50
2018-03-11T23:13:07.328Z,59.50
2018-03-11T23:15:34.819Z,59.60
2018-03-11T23:18:02.470Z,59.60
2018-03-11T23:20:29.980Z,60.20
2018-03-11T23:22:58.253Z,59.60
2018-03-11T23:25:25.763Z,59.60
2018-03-11T23:27:53.398Z,59.70
2018-03-11T23:30:21.670Z,59.90
2018-03-11T23:32:49.192Z,59.80
2018-03-11T23:35:16.685Z,59.90
2018-03-11T23:37:44.520Z,60.00
2018-03-11T23:40:12.890Z,60.10
2018-03-11T23:42:40.435Z,60.00
2018-03-11T23:45:07.958Z,60.70
2018-03-11T23:47:35.585Z,60.00
2018-03-11T23:50:03.192Z,60.10
2018-03-11T23:52:31.483Z,60.30
2018-03-11T23:54:59.752Z,60.30
2018-03-11T23:57:27.257Z,60.30
2018-03-11T23:59:54.762Z,60.30
